createdAt,value
2019-02-24T00:00:24.856Z,53.04
2019-02-24T00:02:56.593Z,53.25
2019-02-24T00:05:25.704Z,53.19
2019-02-24T00:07:55.652Z,51.63
2019-02-24T00:10:25.394Z,50.97
2019-02-24T00:12:55.712Z,51.87
2019-02-24T00:15:25.219Z,52.86
2019-02-24T00:17:57.288Z,53.12
2019-02-24T00:20:26.689Z,52.80
2019-02-24T00:22:57.049Z,53.43
2019-02-24T00:25:26.315Z,53.22
2019-02-24T00:27:56.050Z,51.65
2019-02-24T00:30:25.772Z,52.63
2019-02-24T00:32:55.338Z,51.41
2019-02-24T00:35:26.426Z,52.27
2019-02-24T00:37:57.708Z,51.14
2019-02-24T00:40:26.860Z,52.31
2019-02-24T00:42:56.311Z,51.75
2019-02-24T00:45:25.719Z,51.11
2019-02-24T00:47:55.251Z,51.05
2019-02-24T00:50:25.019Z,51.44
2019-02-24T00:52:56.198Z,51.80
2019-02-24T00:55:26.609Z,52.12
2019-02-24T00:57:55.804Z,51.23
2019-02-24T01:00:25.517Z,51.40
2019-02-24T01:02:55.178Z,51.80
2019-02-24T01:05:24.720Z,51.55
2019-02-24T01:07:54.336Z,52.40
2019-02-24T01:10:26.147Z,52.54
2019-02-24T01:12:56.442Z,52.59
2019-02-24T01:15:25.821Z,52.22
2019-02-24T01:17:55.209Z,51.37
2019-02-24T01:20:24.555Z,51.71
2019-02-24T01:22:53.807Z,51.68
2019-02-24T01:25:22.977Z,51.97
2019-02-24T01:27:53.101Z,51.30
2019-02-24T01:30:24.375Z,51.96
2019-02-24T01:32:53.562Z,52.23
2019-02-24T01:35:22.901Z,52.11
2019-02-24T01:37:52.253Z,52.49
2019-02-24T01:40:22.576Z,51.28
2019-02-24T01:42:51.817Z,52.33
2019-02-24T01:45:21.419Z,52.11
2019-02-24T01:47:53.634Z,52.37
2019-02-24T01:50:23.556Z,51.51
2019-02-24T01:52:54.643Z,51.65
2019-02-24T01:55:24.716Z,52.39
2019-02-24T01:57:54.968Z,50.44
2019-02-24T02:00:24.954Z,50.68
2019-02-24T02:02:56.064Z,50.28
2019-02-24T02:05:26.507Z,50.16
2019-02-24T02:07:55.957Z,52.27
2019-02-24T02:10:25.268Z,51.20
2019-02-24T02:12:54.543Z,51.30
2019-02-24T02:15:24.831Z,50.43
2019-02-24T02:17:54.183Z,50.30
2019-02-24T02:20:23.470Z,49.54
2019-02-24T02:22:55.502Z,50.25
2019-02-24T02:25:24.733Z,49.79
2019-02-24T02:27:54.636Z,50.44
2019-02-24T02:30:24.706Z,50.29
2019-02-24T02:32:54.839Z,50.23
2019-02-24T02:35:23.988Z,50.35
2019-02-24T02:37:53.302Z,50.02
2019-02-24T02:40:23.808Z,50.72
2019-02-24T02:42:53.507Z,49.16
2019-02-24T02:45:23.044Z,48.97
2019-02-24T02:47:53.359Z,48.47
2019-02-24T02:50:22.668Z,48.91
2019-02-24T02:52:52.285Z,48.82
2019-02-24T02:55:22.458Z,48.53
2019-02-24T02:57:54.218Z,48.57
2019-02-24T03:00:34.883Z,49.25
2019-02-24T03:03:04.092Z,48.82
2019-02-24T03:05:35.453Z,48.62
2019-02-24T03:08:07.982Z,48.84
2019-02-24T03:10:37.590Z,48.99
2019-02-24T03:13:07.403Z,49.25
2019-02-24T03:15:36.525Z,49.14
2019-02-24T03:18:06.028Z,49.68
2019-02-24T03:20:35.217Z,48.48
2019-02-24T03:23:05.543Z,48.87
2019-02-24T03:25:36.595Z,48.67
2019-02-24T03:28:06.082Z,48.99
2019-02-24T03:30:41.258Z,48.80
2019-02-24T03:33:11.002Z,48.92
2019-02-24T03:35:41.557Z,49.02
2019-02-24T03:38:12.658Z,48.81
2019-02-24T03:40:41.840Z,48.38
2019-02-24T03:43:11.498Z,49.14
2019-02-24T03:45:41.515Z,48.58
2019-02-24T03:48:11.064Z,48.29
2019-02-24T03:50:40.240Z,48.36
2019-02-24T03:53:10.339Z,48.82
2019-02-24T03:55:40.523Z,49.84
2019-02-24T03:58:10.671Z,48.44
2019-02-24T04:00:40.612Z,47.82
2019-02-24T04:03:10.654Z,47.82
2019-02-24T04:05:40.862Z,47.50
2019-02-24T04:08:11.002Z,47.89
2019-02-24T04:10:40.270Z,48.18
2019-02-24T04:13:10.455Z,48.05
2019-02-24T04:15:40.620Z,47.19
2019-02-24T04:18:10.032Z,48.61
2019-02-24T04:20:40.046Z,47.87
2019-02-24T04:23:09.575Z,47.41
2019-02-24T04:25:38.954Z,47.95
2019-02-24T04:28:09.054Z,46.49
2019-02-24T04:30:40.204Z,47.31
2019-02-24T04:33:10.896Z,46.11
2019-02-24T04:35:41.164Z,46.40
2019-02-24T04:38:11.331Z,46.16
2019-02-24T04:40:40.812Z,46.66
2019-02-24T04:43:10.899Z,46.59
2019-02-24T04:45:40.526Z,46.73
2019-02-24T04:48:12.385Z,47.24
2019-02-24T04:50:41.876Z,47.40
2019-02-24T04:53:11.514Z,47.08
2019-02-24T04:55:41.607Z,47.47
2019-02-24T04:58:11.917Z,47.85
2019-02-24T05:00:42.127Z,47.60
2019-02-24T05:03:11.335Z,47.73
2019-02-24T05:05:42.503Z,47.48
2019-02-24T05:08:11.597Z,46.85
2019-02-24T05:10:40.987Z,47.67
2019-02-24T05:13:10.496Z,47.00
2019-02-24T05:15:41.908Z,47.16
2019-02-24T05:18:11.056Z,48.51
2019-02-24T05:20:40.126Z,47.89
2019-02-24T05:23:11.554Z,48.59
2019-02-24T05:25:41.764Z,48.92
2019-02-24T05:28:11.212Z,48.56
2019-02-24T05:30:41.407Z,48.53
2019-02-24T05:33:10.531Z,48.35
2019-02-24T05:35:39.942Z,48.77
2019-02-24T05:38:09.300Z,48.40
2019-02-24T05:40:41.094Z,49.05
2019-02-24T05:43:11.472Z,48.75
2019-02-24T05:45:40.859Z,49.03
2019-02-24T05:48:10.417Z,48.84
2019-02-24T05:50:40.526Z,48.01
2019-02-24T05:53:09.943Z,48.38
2019-02-24T05:55:39.195Z,48.19
2019-02-24T05:58:11.379Z,48.61
2019-02-24T06:00:41.560Z,48.94
2019-02-24T06:03:11.042Z,48.60
2019-02-24T06:05:41.159Z,48.77
2019-02-24T06:08:10.858Z,49.27
2019-02-24T06:10:41.015Z,49.24
2019-02-24T06:13:10.163Z,48.89
2019-02-24T06:15:40.561Z,48.94
2019-02-24T06:18:11.630Z,49.22
2019-02-24T06:20:41.142Z,49.85
2019-02-24T06:23:10.473Z,49.74
2019-02-24T06:25:40.624Z,50.16
2019-02-24T06:28:09.850Z,49.23
2019-02-24T06:30:38.997Z,49.06
2019-02-24T06:33:08.499Z,49.54
2019-02-24T06:35:40.698Z,50.40
2019-02-24T06:38:10.564Z,50.91
2019-02-24T06:40:40.269Z,49.51
2019-02-24T06:43:09.683Z,49.16
2019-02-24T06:45:39.733Z,49.15
2019-02-24T06:48:09.007Z,48.49
2019-02-24T06:50:49.352Z,48.38
2019-02-24T06:53:18.702Z,48.22
2019-02-24T06:55:48.163Z,48.26
2019-02-24T06:58:18.608Z,48.28
2019-02-24T07:00:50.072Z,48.22
2019-02-24T07:03:20.597Z,48.76
2019-02-24T07:05:49.885Z,48.51
2019-02-24T07:08:19.285Z,47.80
2019-02-24T07:10:48.746Z,47.05
2019-02-24T07:13:19.021Z,48.57
2019-02-24T07:15:49.664Z,47.72
2019-02-24T07:18:20.590Z,47.52
2019-02-24T07:20:49.862Z,47.17
2019-02-24T07:23:19.858Z,46.98
2019-02-24T07:25:49.500Z,46.35
2019-02-24T07:28:19.838Z,46.20
2019-02-24T07:30:50.066Z,46.84
2019-02-24T07:33:19.626Z,47.13
2019-02-24T07:35:50.379Z,45.59
2019-02-24T07:38:20.575Z,45.78
2019-02-24T07:40:49.971Z,45.58
2019-02-24T07:43:20.392Z,45.03
2019-02-24T07:45:49.606Z,44.57
2019-02-24T07:48:18.906Z,44.71
2019-02-24T07:50:49.061Z,45.05
2019-02-24T07:53:20.763Z,44.48
2019-02-24T07:55:50.787Z,44.67
2019-02-24T07:58:20.927Z,43.91
2019-02-24T08:00:50.209Z,43.83
2019-02-24T08:03:19.482Z,44.63
2019-02-24T08:05:49.038Z,44.29
2019-02-24T08:08:19.490Z,44.13
2019-02-24T08:10:51.366Z,43.88
2019-02-24T08:13:21.679Z,44.24
2019-02-24T08:15:50.914Z,43.69
2019-02-24T08:18:20.589Z,43.99
2019-02-24T08:20:50.709Z,42.95
2019-02-24T08:23:20.044Z,42.05
2019-02-24T08:25:49.348Z,42.45
2019-02-24T08:28:21.513Z,41.37
2019-02-24T08:30:51.538Z,42.10
2019-02-24T08:33:20.862Z,39.61
2019-02-24T08:35:50.187Z,38.85
2019-02-24T08:38:19.439Z,38.36
2019-02-24T08:40:48.839Z,37.64
2019-02-24T08:43:19.188Z,36.04
2019-02-24T08:45:51.156Z,36.10
2019-02-24T08:48:21.771Z,35.30
2019-02-24T08:50:51.935Z,33.34
2019-02-24T08:53:21.525Z,30.75
2019-02-24T08:55:51.641Z,28.70
2019-02-24T08:58:21.563Z,28.15
2019-02-24T09:00:51.496Z,28.43
2019-02-24T09:03:23.432Z,26.04
2019-02-24T09:05:53.387Z,25.23
2019-02-24T09:08:22.637Z,27.40
2019-02-24T09:10:51.956Z,26.53
2019-02-24T09:13:21.717Z,24.34
2019-02-24T09:15:53.349Z,23.23
2019-02-24T09:18:25.174Z,19.60
2019-02-24T09:20:57.029Z,15.78
2019-02-24T09:23:26.287Z,15.31
2019-02-24T09:25:56.263Z,17.32
2019-02-24T09:28:25.815Z,21.52
2019-02-24T09:31:00.935Z,17.62
2019-02-24T09:33:28.294Z,16.06
2019-02-24T09:35:58.970Z,16.06
2019-02-24T09:38:29.092Z,17.51
2019-02-24T09:40:58.347Z,15.14
2019-02-24T09:43:27.549Z,15.96
2019-02-24T09:45:56.943Z,16.37
2019-02-24T09:48:26.209Z,15.54
2019-02-24T09:50:55.473Z,18.57
2019-02-24T09:53:27.275Z,20.70
2019-02-24T09:55:56.760Z,21.21
2019-02-24T09:58:26.131Z,21.95
2019-02-24T10:00:55.426Z,20.73
2019-02-24T10:03:24.703Z,18.71
2019-02-24T10:05:54.021Z,18.02
2019-02-24T10:08:23.202Z,18.45
2019-02-24T10:10:52.535Z,16.20
2019-02-24T10:13:22.769Z,13.94
2019-02-24T10:15:52.724Z,13.52
2019-02-24T10:18:21.967Z,13.13
2019-02-24T10:20:51.313Z,15.78
2019-02-24T10:23:20.642Z,14.73
2019-02-24T10:25:50.918Z,18.05
2019-02-24T10:28:20.389Z,13.16
2019-02-24T10:30:50.500Z,13.01
2019-02-24T10:33:20.664Z,16.55
2019-02-24T10:35:50.564Z,14.40
2019-02-24T10:38:20.031Z,13.35
2019-02-24T10:40:49.190Z,10.09
2019-02-24T10:43:18.504Z,10.30
2019-02-24T10:45:47.745Z,9.97
2019-02-24T10:48:17.016Z,9.36
2019-02-24T10:50:46.620Z,9.51
2019-02-24T10:53:18.460Z,10.14
2019-02-24T10:55:47.684Z,14.16
2019-02-24T10:58:17.107Z,14.43
2019-02-24T11:00:46.208Z,10.90
2019-02-24T11:03:15.504Z,12.10
2019-02-24T11:05:44.712Z,18.89
2019-02-24T11:08:14.536Z,15.93
2019-02-24T11:10:44.361Z,15.31
2019-02-24T11:13:14.667Z,16.54
2019-02-24T11:15:44.650Z,13.72
2019-02-24T11:18:14.058Z,16.63
2019-02-24T11:20:44.295Z,18.16
2019-02-24T11:23:13.704Z,18.05
2019-02-24T11:25:43.066Z,14.28
2019-02-24T11:28:17.240Z,13.22
2019-02-24T11:30:47.928Z,16.61
2019-02-24T11:33:18.134Z,15.72
2019-02-24T11:35:47.345Z,15.49
2019-02-24T11:38:16.955Z,20.46
2019-02-24T11:40:46.944Z,16.42
2019-02-24T11:43:16.721Z,15.68
2019-02-24T11:45:47.550Z,15.41
2019-02-24T11:48:17.726Z,14.66
2019-02-24T11:50:47.125Z,14.11
2019-02-24T11:53:17.327Z,20.14
2019-02-24T11:55:46.776Z,16.35
2019-02-24T11:58:15.966Z,14.46
2019-02-24T12:00:45.660Z,14.83
2019-02-24T12:03:17.186Z,16.61
2019-02-24T12:05:47.794Z,16.55
2019-02-24T12:08:18.188Z,16.58
2019-02-24T12:10:47.684Z,18.88
2019-02-24T12:13:17.624Z,18.08
2019-02-24T12:15:47.114Z,19.12
2019-02-24T12:18:16.496Z,19.38
2019-02-24T12:20:49.668Z,19.22
2019-02-24T12:23:18.912Z,18.54
2019-02-24T12:25:47.169Z,19.53
2019-02-24T12:28:16.298Z,19.26
2019-02-24T12:30:45.428Z,20.03
2019-02-24T12:33:13.727Z,19.82
2019-02-24T12:35:41.874Z,22.24
2019-02-24T12:38:11.169Z,19.59
2019-02-24T12:40:40.506Z,20.60
2019-02-24T12:43:09.302Z,22.95
2019-02-24T12:45:39.511Z,21.47
2019-02-24T12:48:07.686Z,20.76
2019-02-24T12:50:35.782Z,22.09
2019-02-24T12:53:03.951Z,21.05
2019-02-24T12:55:32.998Z,22.81
2019-02-24T12:58:01.171Z,21.01
2019-02-24T13:00:30.687Z,22.60
2019-02-24T13:02:58.864Z,22.24
2019-02-24T13:05:27.916Z,22.20
2019-02-24T13:07:56.138Z,21.97
2019-02-24T13:10:24.418Z,22.38
2019-02-24T13:12:52.367Z,22.97
2019-02-24T13:15:22.684Z,22.16
2019-02-24T13:17:53.913Z,23.02
2019-02-24T13:20:23.058Z,20.66
2019-02-24T13:22:53.194Z,22.19
2019-02-24T13:25:23.113Z,21.48
2019-02-24T13:27:53.184Z,21.60
2019-02-24T13:30:23.332Z,21.37
2019-02-24T13:32:51.602Z,20.97
2019-02-24T13:35:21.385Z,20.51
2019-02-24T13:37:50.227Z,21.70
2019-02-24T13:40:19.328Z,20.49
2019-02-24T13:42:47.725Z,19.65
2019-02-24T13:45:20.848Z,23.38
2019-02-24T13:47:49.157Z,20.41
2019-02-24T13:50:18.117Z,21.68
2019-02-24T13:52:47.670Z,22.59
2019-02-24T13:55:18.050Z,20.90
2019-02-24T13:57:48.749Z,23.53
2019-02-24T14:00:19.643Z,22.77
2019-02-24T14:02:49.890Z,22.56
2019-02-24T14:05:19.075Z,24.10
2019-02-24T14:07:48.949Z,21.09
2019-02-24T14:10:18.704Z,21.05
2019-02-24T14:12:48.871Z,20.89
2019-02-24T14:15:18.587Z,23.00
2019-02-24T14:17:48.310Z,20.09
2019-02-24T14:20:18.100Z,20.50
2019-02-24T14:22:47.646Z,21.79
2019-02-24T14:25:17.102Z,21.57
2019-02-24T14:27:47.306Z,22.75
2019-02-24T14:30:18.773Z,20.97
2019-02-24T14:32:48.969Z,20.33
2019-02-24T14:35:28.560Z,21.22
2019-02-24T14:38:00.618Z,20.76
2019-02-24T14:40:29.936Z,20.93
2019-02-24T14:43:00.100Z,21.38
2019-02-24T14:45:29.613Z,23.03
2019-02-24T14:47:59.771Z,21.59
2019-02-24T14:50:29.177Z,21.43
2019-02-24T14:52:58.718Z,23.14
2019-02-24T14:55:30.113Z,21.61
2019-02-24T14:58:00.791Z,24.60
2019-02-24T15:00:30.552Z,22.47
2019-02-24T15:03:02.667Z,22.45
2019-02-24T15:05:32.368Z,22.40
2019-02-24T15:08:06.108Z,23.71
2019-02-24T15:10:36.982Z,22.46
2019-02-24T15:13:06.352Z,22.13
2019-02-24T15:15:38.054Z,22.48
2019-02-24T15:18:08.221Z,24.74
2019-02-24T15:20:38.545Z,22.11
2019-02-24T15:23:09.398Z,22.71
2019-02-24T15:25:40.191Z,22.51
2019-02-24T15:28:10.339Z,21.99
2019-02-24T15:30:40.916Z,22.82
2019-02-24T15:33:10.427Z,23.18
2019-02-24T15:35:40.419Z,23.07
2019-02-24T15:38:12.404Z,23.08
2019-02-24T15:40:42.687Z,23.54
2019-02-24T15:43:13.877Z,22.69
2019-02-24T15:45:43.757Z,22.98
2019-02-24T15:48:13.082Z,22.46
2019-02-24T15:50:43.423Z,23.48
2019-02-24T15:53:14.836Z,23.95
2019-02-24T15:55:45.783Z,23.10
2019-02-24T15:58:27.630Z,22.95
2019-02-24T16:00:57.787Z,22.61
2019-02-24T16:03:27.950Z,23.50
2019-02-24T16:05:57.551Z,22.70
2019-02-24T16:08:27.555Z,27.31
2019-02-24T16:10:57.066Z,23.73
2019-02-24T16:13:27.531Z,21.74
2019-02-24T16:15:59.733Z,26.04
2019-02-24T16:18:30.799Z,23.20
2019-02-24T16:21:00.101Z,26.04
2019-02-24T16:23:29.513Z,27.76
2019-02-24T16:25:59.017Z,23.48
2019-02-24T16:28:29.101Z,28.12
2019-02-24T16:30:58.524Z,26.20
2019-02-24T16:33:30.714Z,27.07
2019-02-24T16:36:00.947Z,24.39
2019-02-24T16:38:30.424Z,26.10
2019-02-24T16:41:00.734Z,24.78
2019-02-24T16:43:30.876Z,25.49
2019-02-24T16:46:00.421Z,26.71
2019-02-24T16:48:29.742Z,24.80
2019-02-24T16:51:00.829Z,28.57
2019-02-24T16:53:33.824Z,29.60
2019-02-24T16:56:03.721Z,29.64
2019-02-24T16:58:33.218Z,28.52
2019-02-24T17:01:03.816Z,28.96
2019-02-24T17:03:33.598Z,30.93
2019-02-24T17:06:05.490Z,31.12
2019-02-24T17:08:35.617Z,28.41
2019-02-24T17:11:07.663Z,31.87
2019-02-24T17:13:37.135Z,30.79
2019-02-24T17:16:07.548Z,31.74
2019-02-24T17:18:39.247Z,32.36
2019-02-24T17:21:09.891Z,31.80
2019-02-24T17:23:39.170Z,29.04
2019-02-24T17:26:09.065Z,33.28
2019-02-24T17:28:39.157Z,34.52
2019-02-24T17:31:09.286Z,32.69
2019-02-24T17:33:38.581Z,35.18
2019-02-24T17:36:09.605Z,32.85
2019-02-24T17:38:39.132Z,34.83
2019-02-24T17:41:09.262Z,35.83
2019-02-24T17:43:39.439Z,35.12
2019-02-24T17:46:09.565Z,29.89
2019-02-24T17:48:39.296Z,36.21
2019-02-24T17:51:08.671Z,31.97
2019-02-24T17:53:39.942Z,35.58
2019-02-24T17:56:09.418Z,34.81
2019-02-24T17:58:39.597Z,28.53
2019-02-24T18:01:09.758Z,35.65
2019-02-24T18:03:39.920Z,36.15
2019-02-24T18:06:09.375Z,29.57
2019-02-24T18:08:39.435Z,28.10
2019-02-24T18:11:10.659Z,27.67
2019-02-24T18:13:40.770Z,30.65
2019-02-24T18:16:11.074Z,31.08
2019-02-24T18:18:41.095Z,30.92
2019-02-24T18:21:11.212Z,29.29
2019-02-24T18:23:40.591Z,30.16
2019-02-24T18:26:10.884Z,34.23
2019-02-24T18:28:42.650Z,29.01
2019-02-24T18:31:11.850Z,30.79
2019-02-24T18:33:48.070Z,31.16
2019-02-24T18:36:13.023Z,34.57
2019-02-24T18:38:43.101Z,29.30
2019-02-24T18:41:13.160Z,29.39
2019-02-24T18:43:43.713Z,28.75
2019-02-24T18:46:13.769Z,31.24
2019-02-24T18:48:43.007Z,28.58
2019-02-24T18:51:12.389Z,35.67
2019-02-24T18:53:41.792Z,33.32
2019-02-24T18:56:11.557Z,30.52
2019-02-24T18:58:41.372Z,35.13
2019-02-24T19:01:13.604Z,29.13
2019-02-24T19:03:43.803Z,32.50
2019-02-24T19:06:13.041Z,30.66
2019-02-24T19:08:42.485Z,30.28
2019-02-24T19:11:11.888Z,30.31
2019-02-24T19:13:42.121Z,30.49
2019-02-24T19:16:11.941Z,29.11
2019-02-24T19:18:44.751Z,29.68
2019-02-24T19:21:14.805Z,31.28
2019-02-24T19:23:45.038Z,31.76
2019-02-24T19:26:14.330Z,31.36
2019-02-24T19:28:43.948Z,30.57
2019-02-24T19:31:13.655Z,30.42
2019-02-24T19:33:43.380Z,31.50
2019-02-24T19:36:13.860Z,30.64
2019-02-24T19:38:43.801Z,34.64
2019-02-24T19:41:13.110Z,32.35
2019-02-24T19:43:42.335Z,33.49
2019-02-24T19:46:11.781Z,32.51
2019-02-24T19:48:42.212Z,31.48
2019-02-24T19:51:12.573Z,30.03
2019-02-24T19:53:43.616Z,32.59
2019-02-24T19:56:18.645Z,32.73
2019-02-24T19:58:49.129Z,33.36
2019-02-24T20:01:19.209Z,34.44
2019-02-24T20:03:50.470Z,35.24
2019-02-24T20:06:21.884Z,33.97
2019-02-24T20:08:51.819Z,35.18
2019-02-24T20:11:21.414Z,34.30
2019-02-24T20:13:51.005Z,32.73
2019-02-24T20:16:21.111Z,35.41
2019-02-24T20:18:51.436Z,34.43
2019-02-24T20:21:24.152Z,35.83
2019-02-24T20:23:54.571Z,34.99
2019-02-24T20:26:24.123Z,34.37
2019-02-24T20:28:53.920Z,34.20
2019-02-24T20:31:24.169Z,33.18
2019-02-24T20:33:53.617Z,32.89
2019-02-24T20:36:25.111Z,33.73
2019-02-24T20:38:57.181Z,32.83
2019-02-24T20:41:26.403Z,32.93
2019-02-24T20:43:56.609Z,34.29
2019-02-24T20:46:27.686Z,33.84
2019-02-24T20:49:05.066Z,32.08
2019-02-24T20:51:35.360Z,32.84
2019-02-24T20:54:04.542Z,33.08
2019-02-24T20:56:33.871Z,34.02
2019-02-24T20:59:03.301Z,33.24
2019-02-24T21:01:32.480Z,32.70
2019-02-24T21:04:03.775Z,33.37
2019-02-24T21:06:35.119Z,32.15
2019-02-24T21:09:07.602Z,32.92
2019-02-24T21:11:36.734Z,33.45
2019-02-24T21:14:06.232Z,34.13
2019-02-24T21:16:36.430Z,33.45
2019-02-24T21:19:07.593Z,32.56
2019-02-24T21:21:38.013Z,33.24
2019-02-24T21:24:07.245Z,35.03
2019-02-24T21:26:36.654Z,34.05
2019-02-24T21:29:06.463Z,33.28
2019-02-24T21:31:36.116Z,33.17
2019-02-24T21:34:05.480Z,33.33
2019-02-24T21:36:36.778Z,33.41
2019-02-24T21:39:09.151Z,34.43
2019-02-24T21:41:38.475Z,34.36
2019-02-24T21:44:08.473Z,34.44
2019-02-24T21:46:38.141Z,34.44
2019-02-24T21:49:07.625Z,35.54
2019-02-24T21:51:37.810Z,35.33
2019-02-24T21:54:09.865Z,36.50
2019-02-24T21:56:39.117Z,37.10
2019-02-24T21:59:09.455Z,36.79
2019-02-24T22:01:38.642Z,35.22
2019-02-24T22:04:09.638Z,36.15
2019-02-24T22:06:39.419Z,36.22
2019-02-24T22:09:12.281Z,36.20
2019-02-24T22:11:42.214Z,35.75
2019-02-24T22:14:11.487Z,36.44
2019-02-24T22:16:40.804Z,35.35
2019-02-24T22:19:10.928Z,35.63
2019-02-24T22:21:40.736Z,36.04
2019-02-24T22:24:12.743Z,35.97
2019-02-24T22:26:43.853Z,36.37
2019-02-24T22:29:13.332Z,35.63
2019-02-24T22:31:43.424Z,35.98
2019-02-24T22:34:13.262Z,36.39
2019-02-24T22:36:43.339Z,36.08
2019-02-24T22:39:12.542Z,36.31
2019-02-24T22:41:44.443Z,35.80
2019-02-24T22:44:13.969Z,35.83
2019-02-24T22:46:43.391Z,35.98
2019-02-24T22:49:12.518Z,35.68
2019-02-24T22:51:42.014Z,35.42
2019-02-24T22:54:12.184Z,36.15
2019-02-24T22:56:41.424Z,35.79
2019-02-24T22:59:14.333Z,35.49
2019-02-24T23:01:45.260Z,35.74
2019-02-24T23:04:14.663Z,36.30
2019-02-24T23:06:44.090Z,35.91
2019-02-24T23:09:15.196Z,36.00
2019-02-24T23:11:44.600Z,35.95
2019-02-24T23:14:16.385Z,36.57
2019-02-24T23:16:46.990Z,36.43
2019-02-24T23:19:16.192Z,36.24
2019-02-24T23:21:46.646Z,36.38
2019-02-24T23:24:15.839Z,36.81
2019-02-24T23:26:45.338Z,36.83
2019-02-24T23:29:14.401Z,36.94
2019-02-24T23:31:43.812Z,37.00
2019-02-24T23:34:14.727Z,36.93
2019-02-24T23:36:44.381Z,36.84
2019-02-24T23:39:14.825Z,36.52
2019-02-24T23:41:44.214Z,36.82
2019-02-24T23:44:13.795Z,37.40
2019-02-24T23:46:43.229Z,37.12
2019-02-24T23:49:12.606Z,37.24
2019-02-24T23:51:43.518Z,36.98
2019-02-24T23:54:14.167Z,37.54
2019-02-24T23:56:44.531Z,37.63
2019-02-24T23:59:13.844Z,37.55
